sensor_id;sensor_type;location;lat;lon;timestamp;temperature;humidity
55369;DHT22;41247;49.736;8.752;2022-08-01T00:02:04;18.90;99.90
55369;DHT22;41247;49.736;8.752;2022-08-01T00:05:44;18.90;99.90
55369;DHT22;41247;49.736;8.752;2022-08-01T00:09:25;18.90;99.90
55369;DHT22;41247;49.736;8.752;2022-08-01T00:13:06;19.00;99.90
55369;DHT22;41247;49.736;8.752;2022-08-01T00:16:46;19.00;99.90
55369;DHT22;41247;49.736;8.752;2022-08-01T00:20:27;18.90;99.90
55369;DHT22;41247;49.736;8.752;2022-08-01T00:24:08;18.90;99.90
55369;DHT22;41247;49.736;8.752;2022-08-01T00:27:48;18.90;99.90
55369;DHT22;41247;49.736;8.752;2022-08-01T00:31:29;18.80;99.90
55369;DHT22;41247;49.736;8.752;2022-08-01T00:35:10;18.80;99.90
55369;DHT22;41247;49.736;8.752;2022-08-01T00:38:51;18.80;99.90
55369;DHT22;41247;49.736;8.752;2022-08-01T00:42:32;18.80;99.90
55369;DHT22;41247;49.736;8.752;2022-08-01T00:46:12;18.90;99.90
55369;DHT22;41247;49.736;8.752;2022-08-01T00:49:53;19.00;99.90
55369;DHT22;41247;49.736;8.752;2022-08-01T00:53:34;19.10;99.90
55369;DHT22;41247;49.736;8.752;2022-08-01T00:57:15;19.30;99.90
55369;DHT22;41247;49.736;8.752;2022-08-01T01:00:55;19.40;99.90
55369;DHT22;41247;49.736;8.752;2022-08-01T01:04:36;19.30;99.90
55369;DHT22;41247;49.736;8.752;2022-08-01T01:08:22;19.30;99.90
55369;DHT22;41247;49.736;8.752;2022-08-01T01:12:30;19.40;99.90
55369;DHT22;41247;49.736;8.752;2022-08-01T01:16:15;19.60;99.90
55369;DHT22;41247;49.736;8.752;2022-08-01T01:19:59;19.70;99.90
55369;DHT22;41247;49.736;8.752;2022-08-01T01:28:33;19.90;99.90
55369;DHT22;41247;49.736;8.752;2022-08-01T01:32:19;20.00;99.90
55369;DHT22;41247;49.736;8.752;2022-08-01T01:36:07;20.00;99.90
55369;DHT22;41247;49.736;8.752;2022-08-01T01:39:50;19.90;99.90
55369;DHT22;41247;49.736;8.752;2022-08-01T01:43:32;19.90;99.90
55369;DHT22;41247;49.736;8.752;2022-08-01T01:47:14;19.80;99.90
55369;DHT22;41247;49.736;8.752;2022-08-01T01:50:56;19.80;99.90
55369;DHT22;41247;49.736;8.752;2022-08-01T01:54:40;19.80;99.90
55369;DHT22;41247;49.736;8.752;2022-08-01T01:58:26;19.80;99.90
55369;DHT22;41247;49.736;8.752;2022-08-01T02:02:08;19.80;99.90
55369;DHT22;41247;49.736;8.752;2022-08-01T02:05:51;19.80;99.90
55369;DHT22;41247;49.736;8.752;2022-08-01T02:09:34;19.70;99.90
55369;DHT22;41247;49.736;8.752;2022-08-01T02:13:16;19.60;99.90
55369;DHT22;41247;49.736;8.752;2022-08-01T02:16:57;19.50;99.90
55369;DHT22;41247;49.736;8.752;2022-08-01T02:20:38;19.50;99.90
55369;DHT22;41247;49.736;8.752;2022-08-01T02:24:37;19.30;99.90
55369;DHT22;41247;49.736;8.752;2022-08-01T02:28:32;19.20;99.90
55369;DHT22;41247;49.736;8.752;2022-08-01T02:32:27;19.00;99.90
55369;DHT22;41247;49.736;8.752;2022-08-01T02:36:12;18.90;99.90
55369;DHT22;41247;49.736;8.752;2022-08-01T02:39:54;18.80;99.90
55369;DHT22;41247;49.736;8.752;2022-08-01T02:43:37;18.70;99.90
55369;DHT22;41247;49.736;8.752;2022-08-01T02:47:20;18.60;99.90
55369;DHT22;41247;49.736;8.752;2022-08-01T02:51:03;18.40;99.90
55369;DHT22;41247;49.736;8.752;2022-08-01T02:54:50;18.30;99.90
55369;DHT22;41247;49.736;8.752;2022-08-01T02:58:33;18.30;99.90
55369;DHT22;41247;49.736;8.752;2022-08-01T03:02:16;18.30;99.90
55369;DHT22;41247;49.736;8.752;2022-08-01T03:05:58;18.20;99.90
55369;DHT22;41247;49.736;8.752;2022-08-01T03:09:43;18.10;99.90
55369;DHT22;41247;49.736;8.752;2022-08-01T03:13:28;18.10;99.90
55369;DHT22;41247;49.736;8.752;2022-08-01T03:17:10;18.00;99.90
55369;DHT22;41247;49.736;8.752;2022-08-01T03:20:53;18.00;99.90
55369;DHT22;41247;49.736;8.752;2022-08-01T03:24:35;18.00;99.90
55369;DHT22;41247;49.736;8.752;2022-08-01T03:28:18;18.10;99.90
55369;DHT22;41247;49.736;8.752;2022-08-01T03:32:01;18.10;99.90
55369;DHT22;41247;49.736;8.752;2022-08-01T03:35:52;18.10;99.90
55369;DHT22;41247;49.736;8.752;2022-08-01T03:39:44;18.10;99.90
55369;DHT22;41247;49.736;8.752;2022-08-01T03:43:33;18.00;99.90
55369;DHT22;41247;49.736;8.752;2022-08-01T03:47:17;18.00;99.90
55369;DHT22;41247;49.736;8.752;2022-08-01T03:50:59;17.90;99.90
55369;DHT22;41247;49.736;8.752;2022-08-01T03:54:47;17.90;99.90
55369;DHT22;41247;49.736;8.752;2022-08-01T03:58:30;17.90;99.90
55369;DHT22;41247;49.736;8.752;2022-08-01T04:02:12;17.90;99.90
55369;DHT22;41247;49.736;8.752;2022-08-01T04:05:54;18.00;99.90
55369;DHT22;41247;49.736;8.752;2022-08-01T04:09:34;18.10;99.90
55369;DHT22;41247;49.736;8.752;2022-08-01T04:13:15;18.10;99.90
55369;DHT22;41247;49.736;8.752;2022-08-01T04:16:56;18.10;99.90
55369;DHT22;41247;49.736;8.752;2022-08-01T04:20:36;18.30;99.90
55369;DHT22;41247;49.736;8.752;2022-08-01T04:24:18;18.40;99.90
55369;DHT22;41247;49.736;8.752;2022-08-01T04:28:01;18.50;99.90
55369;DHT22;41247;49.736;8.752;2022-08-01T04:31:43;18.50;99.90
55369;DHT22;41247;49.736;8.752;2022-08-01T04:35:26;18.60;99.90
55369;DHT22;41247;49.736;8.752;2022-08-01T04:39:08;18.70;99.90
55369;DHT22;41247;49.736;8.752;2022-08-01T04:42:50;18.70;99.90
55369;DHT22;41247;49.736;8.752;2022-08-01T04:46:31;18.80;99.90
55369;DHT22;41247;49.736;8.752;2022-08-01T04:50:13;18.90;99.90
55369;DHT22;41247;49.736;8.752;2022-08-01T04:53:53;19.00;99.90
55369;DHT22;41247;49.736;8.752;2022-08-01T04:57:40;19.00;99.90
55369;DHT22;41247;49.736;8.752;2022-08-01T05:01:23;19.10;99.90
55369;DHT22;41247;49.736;8.752;2022-08-01T05:05:04;19.20;99.90
55369;DHT22;41247;49.736;8.752;2022-08-01T05:08:45;19.30;99.90
55369;DHT22;41247;49.736;8.752;2022-08-01T05:12:26;19.40;99.90
55369;DHT22;41247;49.736;8.752;2022-08-01T05:16:06;19.50;99.90
55369;DHT22;41247;49.736;8.752;2022-08-01T05:19:47;19.60;99.90
55369;DHT22;41247;49.736;8.752;2022-08-01T05:23:28;19.70;99.90
55369;DHT22;41247;49.736;8.752;2022-08-01T05:27:09;19.60;99.90
55369;DHT22;41247;49.736;8.752;2022-08-01T05:30:50;19.60;99.90
55369;DHT22;41247;49.736;8.752;2022-08-01T05:34:31;19.50;99.90
55369;DHT22;41247;49.736;8.752;2022-08-01T05:38:12;19.50;99.90
55369;DHT22;41247;49.736;8.752;2022-08-01T05:41:52;19.40;99.90
55369;DHT22;41247;49.736;8.752;2022-08-01T05:45:33;19.40;99.90
55369;DHT22;41247;49.736;8.752;2022-08-01T05:49:13;19.40;99.90
55369;DHT22;41247;49.736;8.752;2022-08-01T05:52:54;19.40;99.90
55369;DHT22;41247;49.736;8.752;2022-08-01T05:56:35;19.40;99.90
55369;DHT22;41247;49.736;8.752;2022-08-01T06:00:15;19.50;99.90
55369;DHT22;41247;49.736;8.752;2022-08-01T06:03:56;19.60;99.90
55369;DHT22;41247;49.736;8.752;2022-08-01T06:07:37;19.70;99.90
55369;DHT22;41247;49.736;8.752;2022-08-01T06:11:17;19.80;99.90
55369;DHT22;41247;49.736;8.752;2022-08-01T06:14:58;19.80;99.90
55369;DHT22;41247;49.736;8.752;2022-08-01T06:18:38;19.80;99.90
55369;DHT22;41247;49.736;8.752;2022-08-01T06:22:19;19.80;99.90
55369;DHT22;41247;49.736;8.752;2022-08-01T06:26:00;19.80;99.90
55369;DHT22;41247;49.736;8.752;2022-08-01T06:29:40;19.90;99.90
55369;DHT22;41247;49.736;8.752;2022-08-01T06:33:21;20.10;99.90
55369;DHT22;41247;49.736;8.752;2022-08-01T06:37:01;20.20;99.90
55369;DHT22;41247;49.736;8.752;2022-08-01T06:40:42;20.30;99.90
55369;DHT22;41247;49.736;8.752;2022-08-01T06:44:23;20.30;99.90
55369;DHT22;41247;49.736;8.752;2022-08-01T06:48:03;20.40;99.90
55369;DHT22;41247;49.736;8.752;2022-08-01T06:51:44;20.40;99.90
55369;DHT22;41247;49.736;8.752;2022-08-01T06:55:25;20.50;99.90
55369;DHT22;41247;49.736;8.752;2022-08-01T06:59:06;20.70;99.90
55369;DHT22;41247;49.736;8.752;2022-08-01T07:02:46;20.90;99.90
55369;DHT22;41247;49.736;8.752;2022-08-01T07:06:27;21.10;99.90
55369;DHT22;41247;49.736;8.752;2022-08-01T07:10:08;21.30;99.90
55369;DHT22;41247;49.736;8.752;2022-08-01T07:13:49;21.30;99.90
55369;DHT22;41247;49.736;8.752;2022-08-01T07:17:29;21.40;99.90
55369;DHT22;41247;49.736;8.752;2022-08-01T07:21:10;21.70;99.90
55369;DHT22;41247;49.736;8.752;2022-08-01T07:24:51;21.80;99.90
55369;DHT22;41247;49.736;8.752;2022-08-01T07:28:31;21.90;99.90
55369;DHT22;41247;49.736;8.752;2022-08-01T07:32:12;21.90;99.90
55369;DHT22;41247;49.736;8.752;2022-08-01T07:35:53;22.00;99.90
55369;DHT22;41247;49.736;8.752;2022-08-01T07:39:34;22.20;99.90
55369;DHT22;41247;49.736;8.752;2022-08-01T07:43:15;22.50;99.90
55369;DHT22;41247;49.736;8.752;2022-08-01T07:46:55;22.70;99.90
55369;DHT22;41247;49.736;8.752;2022-08-01T07:50:36;22.80;99.90
55369;DHT22;41247;49.736;8.752;2022-08-01T07:54:16;23.00;99.90
55369;DHT22;41247;49.736;8.752;2022-08-01T07:57:57;23.20;99.90
55369;DHT22;41247;49.736;8.752;2022-08-01T08:01:38;23.30;99.90
55369;DHT22;41247;49.736;8.752;2022-08-01T08:05:18;23.60;99.90
55369;DHT22;41247;49.736;8.752;2022-08-01T08:08:59;23.80;99.90
55369;DHT22;41247;49.736;8.752;2022-08-01T08:12:40;24.30;99.90
55369;DHT22;41247;49.736;8.752;2022-08-01T08:16:20;24.70;99.90
55369;DHT22;41247;49.736;8.752;2022-08-01T08:20:02;24.70;99.90
55369;DHT22;41247;49.736;8.752;2022-08-01T08:23:44;25.00;99.90
55369;DHT22;41247;49.736;8.752;2022-08-01T08:27:25;25.30;99.90
55369;DHT22;41247;49.736;8.752;2022-08-01T08:31:05;25.40;99.90
55369;DHT22;41247;49.736;8.752;2022-08-01T08:34:46;25.60;99.90
55369;DHT22;41247;49.736;8.752;2022-08-01T08:38:27;25.60;99.90
55369;DHT22;41247;49.736;8.752;2022-08-01T08:42:08;25.60;99.90
55369;DHT22;41247;49.736;8.752;2022-08-01T08:45:50;25.40;99.90
55369;DHT22;41247;49.736;8.752;2022-08-01T08:49:32;25.30;99.90
55369;DHT22;41247;49.736;8.752;2022-08-01T08:53:14;25.30;99.90
55369;DHT22;41247;49.736;8.752;2022-08-01T08:56:56;25.30;99.90
55369;DHT22;41247;49.736;8.752;2022-08-01T09:00:39;25.30;99.90
55369;DHT22;41247;49.736;8.752;2022-08-01T09:04:23;25.60;99.90
55369;DHT22;41247;49.736;8.752;2022-08-01T09:08:08;25.70;99.90
55369;DHT22;41247;49.736;8.752;2022-08-01T09:11:48;25.80;99.90
55369;DHT22;41247;49.736;8.752;2022-08-01T09:15:44;25.70;99.90
55369;DHT22;41247;49.736;8.752;2022-08-01T09:19:38;25.50;99.90
55369;DHT22;41247;49.736;8.752;2022-08-01T09:23:40;25.70;99.90
55369;DHT22;41247;49.736;8.752;2022-08-01T09:27:23;25.90;99.90
55369;DHT22;41247;49.736;8.752;2022-08-01T09:31:15;26.10;99.90
55369;DHT22;41247;49.736;8.752;2022-08-01T09:35:30;26.80;99.90
55369;DHT22;41247;49.736;8.752;2022-08-01T09:39:13;27.30;99.90
55369;DHT22;41247;49.736;8.752;2022-08-01T09:43:10;27.00;99.90
55369;DHT22;41247;49.736;8.752;2022-08-01T09:46:53;26.70;99.90
55369;DHT22;41247;49.736;8.752;2022-08-01T09:50:42;26.80;99.90
55369;DHT22;41247;49.736;8.752;2022-08-01T09:54:31;27.20;99.90
55369;DHT22;41247;49.736;8.752;2022-08-01T09:58:13;27.30;99.90
55369;DHT22;41247;49.736;8.752;2022-08-01T10:01:53;27.10;99.90
55369;DHT22;41247;49.736;8.752;2022-08-01T10:05:35;27.20;99.90
55369;DHT22;41247;49.736;8.752;2022-08-01T10:09:27;27.40;99.90
55369;DHT22;41247;49.736;8.752;2022-08-01T10:13:08;27.90;99.90
55369;DHT22;41247;49.736;8.752;2022-08-01T10:16:52;28.40;99.90
55369;DHT22;41247;49.736;8.752;2022-08-01T10:20:33;28.50;99.90
55369;DHT22;41247;49.736;8.752;2022-08-01T10:24:15;27.80;99.90
55369;DHT22;41247;49.736;8.752;2022-08-01T10:27:56;27.70;99.90
55369;DHT22;41247;49.736;8.752;2022-08-01T10:31:40;27.60;99.90
55369;DHT22;41247;49.736;8.752;2022-08-01T10:35:21;27.70;99.90
55369;DHT22;41247;49.736;8.752;2022-08-01T10:39:01;27.70;99.90
55369;DHT22;41247;49.736;8.752;2022-08-01T10:42:43;27.50;99.90
55369;DHT22;41247;49.736;8.752;2022-08-01T10:46:25;27.40;99.90
55369;DHT22;41247;49.736;8.752;2022-08-01T10:50:14;27.40;99.90
55369;DHT22;41247;49.736;8.752;2022-08-01T10:54:08;27.80;99.90
55369;DHT22;41247;49.736;8.752;2022-08-01T10:57:50;27.80;99.90
55369;DHT22;41247;49.736;8.752;2022-08-01T11:01:30;27.70;99.90
55369;DHT22;41247;49.736;8.752;2022-08-01T11:05:20;27.50;99.90
55369;DHT22;41247;49.736;8.752;2022-08-01T11:09:04;27.40;99.90
55369;DHT22;41247;49.736;8.752;2022-08-01T11:12:46;27.40;99.90
55369;DHT22;41247;49.736;8.752;2022-08-01T11:16:28;27.60;99.90
55369;DHT22;41247;49.736;8.752;2022-08-01T11:20:14;27.60;99.90
55369;DHT22;41247;49.736;8.752;2022-08-01T11:23:58;27.40;99.90
55369;DHT22;41247;49.736;8.752;2022-08-01T11:27:41;27.40;99.90
55369;DHT22;41247;49.736;8.752;2022-08-01T11:35:02;29.30;99.90
55369;DHT22;41247;49.736;8.752;2022-08-01T11:39:10;29.40;99.90
55369;DHT22;41247;49.736;8.752;2022-08-01T11:47:05;28.20;99.90
55369;DHT22;41247;49.736;8.752;2022-08-01T11:50:46;27.70;99.90
55369;DHT22;41247;49.736;8.752;2022-08-01T11:54:29;27.70;99.90
55369;DHT22;41247;49.736;8.752;2022-08-01T11:58:10;27.70;99.90
55369;DHT22;41247;49.736;8.752;2022-08-01T12:01:51;27.80;99.90
55369;DHT22;41247;49.736;8.752;2022-08-01T12:05:33;27.90;99.90
55369;DHT22;41247;49.736;8.752;2022-08-01T12:09:19;28.00;99.90
55369;DHT22;41247;49.736;8.752;2022-08-01T12:13:03;27.80;99.90
55369;DHT22;41247;49.736;8.752;2022-08-01T12:16:52;27.50;99.90
55369;DHT22;41247;49.736;8.752;2022-08-01T12:20:35;27.40;99.90
55369;DHT22;41247;49.736;8.752;2022-08-01T12:24:22;27.70;99.90
55369;DHT22;41247;49.736;8.752;2022-08-01T12:28:07;27.70;99.90
55369;DHT22;41247;49.736;8.752;2022-08-01T12:31:48;28.00;99.90
55369;DHT22;41247;49.736;8.752;2022-08-01T12:35:30;28.30;99.90
55369;DHT22;41247;49.736;8.752;2022-08-01T12:39:11;28.60;99.90
55369;DHT22;41247;49.736;8.752;2022-08-01T12:42:57;29.00;99.90
55369;DHT22;41247;49.736;8.752;2022-08-01T12:46:42;29.40;99.90
55369;DHT22;41247;49.736;8.752;2022-08-01T12:50:26;29.50;99.90
55369;DHT22;41247;49.736;8.752;2022-08-01T12:54:08;29.90;99.90
55369;DHT22;41247;49.736;8.752;2022-08-01T12:57:50;30.10;99.90
55369;DHT22;41247;49.736;8.752;2022-08-01T13:01:44;29.90;99.90
55369;DHT22;41247;49.736;8.752;2022-08-01T13:05:25;29.70;99.90
55369;DHT22;41247;49.736;8.752;2022-08-01T13:09:06;29.50;99.90
55369;DHT22;41247;49.736;8.752;2022-08-01T13:12:52;29.30;99.90
55369;DHT22;41247;49.736;8.752;2022-08-01T13:16:45;29.20;99.90
55369;DHT22;41247;49.736;8.752;2022-08-01T13:20:30;29.40;99.90
55369;DHT22;41247;49.736;8.752;2022-08-01T13:24:13;30.10;99.90
55369;DHT22;41247;49.736;8.752;2022-08-01T13:28:23;30.60;99.90
55369;DHT22;41247;49.736;8.752;2022-08-01T13:32:19;31.10;99.90
55369;DHT22;41247;49.736;8.752;2022-08-01T13:36:00;31.40;99.90
55369;DHT22;41247;49.736;8.752;2022-08-01T13:39:44;31.60;99.90
55369;DHT22;41247;49.736;8.752;2022-08-01T13:43:24;31.40;99.90
55369;DHT22;41247;49.736;8.752;2022-08-01T13:47:05;30.80;99.90
55369;DHT22;41247;49.736;8.752;2022-08-01T13:50:46;30.30;99.90
55369;DHT22;41247;49.736;8.752;2022-08-01T13:54:26;30.00;99.90
55369;DHT22;41247;49.736;8.752;2022-08-01T13:58:07;29.70;99.90
55369;DHT22;41247;49.736;8.752;2022-08-01T14:01:48;29.40;99.90
55369;DHT22;41247;49.736;8.752;2022-08-01T14:05:29;29.40;99.90
55369;DHT22;41247;49.736;8.752;2022-08-01T14:09:10;29.40;99.90
55369;DHT22;41247;49.736;8.752;2022-08-01T14:12:50;30.00;99.90
55369;DHT22;41247;49.736;8.752;2022-08-01T14:16:31;30.80;99.90
55369;DHT22;41247;49.736;8.752;2022-08-01T14:20:11;31.30;99.90
55369;DHT22;41247;49.736;8.752;2022-08-01T14:23:52;31.40;99.90
55369;DHT22;41247;49.736;8.752;2022-08-01T14:27:33;31.50;99.90
55369;DHT22;41247;49.736;8.752;2022-08-01T14:31:13;31.70;99.90
55369;DHT22;41247;49.736;8.752;2022-08-01T14:34:55;31.40;99.90
55369;DHT22;41247;49.736;8.752;2022-08-01T14:38:35;30.70;99.90
55369;DHT22;41247;49.736;8.752;2022-08-01T14:42:16;30.30;99.90
55369;DHT22;41247;49.736;8.752;2022-08-01T14:45:57;29.90;99.90
55369;DHT22;41247;49.736;8.752;2022-08-01T14:49:38;29.40;99.90
55369;DHT22;41247;49.736;8.752;2022-08-01T14:53:18;29.00;99.90
55369;DHT22;41247;49.736;8.752;2022-08-01T14:56:59;28.80;99.90
55369;DHT22;41247;49.736;8.752;2022-08-01T15:00:40;28.60;99.90
55369;DHT22;41247;49.736;8.752;2022-08-01T15:04:20;28.70;99.90
55369;DHT22;41247;49.736;8.752;2022-08-01T15:08:01;28.60;99.90
55369;DHT22;41247;49.736;8.752;2022-08-01T15:11:43;28.60;99.90
55369;DHT22;41247;49.736;8.752;2022-08-01T15:15:23;28.70;99.90
55369;DHT22;41247;49.736;8.752;2022-08-01T15:19:04;28.90;99.90
55369;DHT22;41247;49.736;8.752;2022-08-01T15:22:44;28.90;99.90
55369;DHT22;41247;49.736;8.752;2022-08-01T15:26:25;29.10;99.90
55369;DHT22;41247;49.736;8.752;2022-08-01T15:30:07;29.20;99.90
55369;DHT22;41247;49.736;8.752;2022-08-01T15:33:48;29.20;99.90
55369;DHT22;41247;49.736;8.752;2022-08-01T15:37:28;29.20;99.90
55369;DHT22;41247;49.736;8.752;2022-08-01T15:41:09;29.30;99.90
55369;DHT22;41247;49.736;8.752;2022-08-01T15:44:50;29.50;99.90
55369;DHT22;41247;49.736;8.752;2022-08-01T15:48:30;29.50;99.90
55369;DHT22;41247;49.736;8.752;2022-08-01T15:52:11;29.30;99.90
55369;DHT22;41247;49.736;8.752;2022-08-01T15:55:52;28.90;99.90
55369;DHT22;41247;49.736;8.752;2022-08-01T15:59:32;28.60;99.90
55369;DHT22;41247;49.736;8.752;2022-08-01T16:03:13;28.40;99.90
55369;DHT22;41247;49.736;8.752;2022-08-01T16:06:53;28.30;99.90
55369;DHT22;41247;49.736;8.752;2022-08-01T16:10:34;28.20;99.90
55369;DHT22;41247;49.736;8.752;2022-08-01T16:14:15;28.30;99.90
55369;DHT22;41247;49.736;8.752;2022-08-01T16:17:55;28.40;99.90
55369;DHT22;41247;49.736;8.752;2022-08-01T16:21:36;28.50;99.90
55369;DHT22;41247;49.736;8.752;2022-08-01T16:25:16;28.20;99.90
55369;DHT22;41247;49.736;8.752;2022-08-01T16:28:58;27.90;99.90
55369;DHT22;41247;49.736;8.752;2022-08-01T16:32:39;27.60;99.90
55369;DHT22;41247;49.736;8.752;2022-08-01T16:36:19;27.30;99.90
55369;DHT22;41247;49.736;8.752;2022-08-01T16:40:00;26.90;99.90
55369;DHT22;41247;49.736;8.752;2022-08-01T16:43:41;26.50;99.90
55369;DHT22;41247;49.736;8.752;2022-08-01T16:47:21;26.10;99.90
55369;DHT22;41247;49.736;8.752;2022-08-01T16:51:02;25.60;99.90
55369;DHT22;41247;49.736;8.752;2022-08-01T16:54:43;25.30;99.90
55369;DHT22;41247;49.736;8.752;2022-08-01T16:58:23;25.10;99.90
55369;DHT22;41247;49.736;8.752;2022-08-01T17:02:04;25.00;99.90
55369;DHT22;41247;49.736;8.752;2022-08-01T17:05:45;25.00;99.90
55369;DHT22;41247;49.736;8.752;2022-08-01T17:09:25;24.90;99.90
55369;DHT22;41247;49.736;8.752;2022-08-01T17:13:06;24.90;99.90
55369;DHT22;41247;49.736;8.752;2022-08-01T17:16:46;24.90;99.90
55369;DHT22;41247;49.736;8.752;2022-08-01T17:20:28;24.80;99.90
55369;DHT22;41247;49.736;8.752;2022-08-01T17:24:09;24.70;99.90
55369;DHT22;41247;49.736;8.752;2022-08-01T17:27:50;24.60;99.90
55369;DHT22;41247;49.736;8.752;2022-08-01T17:31:31;24.50;99.90
55369;DHT22;41247;49.736;8.752;2022-08-01T17:35:11;24.40;99.90
55369;DHT22;41247;49.736;8.752;2022-08-01T17:38:52;24.30;99.90
55369;DHT22;41247;49.736;8.752;2022-08-01T17:42:32;24.10;99.90
55369;DHT22;41247;49.736;8.752;2022-08-01T17:46:13;23.90;99.90
55369;DHT22;41247;49.736;8.752;2022-08-01T17:49:54;23.80;99.90
55369;DHT22;41247;49.736;8.752;2022-08-01T17:53:34;23.80;99.90
55369;DHT22;41247;49.736;8.752;2022-08-01T17:57:15;23.70;99.90
55369;DHT22;41247;49.736;8.752;2022-08-01T18:00:55;23.60;99.90
55369;DHT22;41247;49.736;8.752;2022-08-01T18:04:36;23.50;99.90
55369;DHT22;41247;49.736;8.752;2022-08-01T18:08:17;23.50;99.90
55369;DHT22;41247;49.736;8.752;2022-08-01T18:11:59;23.40;99.90
55369;DHT22;41247;49.736;8.752;2022-08-01T18:15:40;23.30;99.90
55369;DHT22;41247;49.736;8.752;2022-08-01T18:19:20;23.20;99.90
55369;DHT22;41247;49.736;8.752;2022-08-01T18:23:01;23.20;99.90
55369;DHT22;41247;49.736;8.752;2022-08-01T18:26:42;23.00;99.90
55369;DHT22;41247;49.736;8.752;2022-08-01T18:30:23;22.90;99.90
55369;DHT22;41247;49.736;8.752;2022-08-01T18:34:04;22.90;99.90
55369;DHT22;41247;49.736;8.752;2022-08-01T18:37:45;22.80;99.90
55369;DHT22;41247;49.736;8.752;2022-08-01T18:41:25;22.70;99.90
55369;DHT22;41247;49.736;8.752;2022-08-01T18:45:06;22.70;99.90
55369;DHT22;41247;49.736;8.752;2022-08-01T18:48:47;22.50;99.90
55369;DHT22;41247;49.736;8.752;2022-08-01T18:52:28;22.40;99.90
55369;DHT22;41247;49.736;8.752;2022-08-01T18:56:09;22.30;99.90
55369;DHT22;41247;49.736;8.752;2022-08-01T18:59:50;22.20;99.90
55369;DHT22;41247;49.736;8.752;2022-08-01T19:03:30;22.20;99.90
55369;DHT22;41247;49.736;8.752;2022-08-01T19:07:11;22.00;99.90
55369;DHT22;41247;49.736;8.752;2022-08-01T19:10:52;22.00;99.90
55369;DHT22;41247;49.736;8.752;2022-08-01T19:14:32;21.80;99.90
55369;DHT22;41247;49.736;8.752;2022-08-01T19:18:13;21.70;99.90
55369;DHT22;41247;49.736;8.752;2022-08-01T19:21:54;21.60;99.90
55369;DHT22;41247;49.736;8.752;2022-08-01T19:25:34;21.50;99.90
55369;DHT22;41247;49.736;8.752;2022-08-01T19:33:05;21.10;99.90
55369;DHT22;41247;49.736;8.752;2022-08-01T19:36:49;21.00;99.90
55369;DHT22;41247;49.736;8.752;2022-08-01T19:40:31;20.90;99.90
55369;DHT22;41247;49.736;8.752;2022-08-01T19:44:15;20.80;99.90
55369;DHT22;41247;49.736;8.752;2022-08-01T19:47:57;20.70;99.90
55369;DHT22;41247;49.736;8.752;2022-08-01T19:51:46;20.60;99.90
55369;DHT22;41247;49.736;8.752;2022-08-01T19:55:33;20.50;99.90
55369;DHT22;41247;49.736;8.752;2022-08-01T19:59:20;20.50;99.90
55369;DHT22;41247;49.736;8.752;2022-08-01T20:03:03;20.40;99.90
55369;DHT22;41247;49.736;8.752;2022-08-01T20:06:45;20.30;99.90
55369;DHT22;41247;49.736;8.752;2022-08-01T20:10:26;20.20;99.90
55369;DHT22;41247;49.736;8.752;2022-08-01T20:14:07;20.20;99.90
55369;DHT22;41247;49.736;8.752;2022-08-01T20:17:51;20.10;99.90
55369;DHT22;41247;49.736;8.752;2022-08-01T20:21:32;20.00;99.90
55369;DHT22;41247;49.736;8.752;2022-08-01T20:25:13;19.90;99.90
55369;DHT22;41247;49.736;8.752;2022-08-01T20:28:56;19.80;99.90
55369;DHT22;41247;49.736;8.752;2022-08-01T20:32:37;19.70;99.90
55369;DHT22;41247;49.736;8.752;2022-08-01T20:36:18;19.60;99.90
55369;DHT22;41247;49.736;8.752;2022-08-01T20:39:59;19.50;99.90
55369;DHT22;41247;49.736;8.752;2022-08-01T20:43:40;19.40;99.90
55369;DHT22;41247;49.736;8.752;2022-08-01T20:47:22;19.20;99.90
55369;DHT22;41247;49.736;8.752;2022-08-01T20:51:03;19.10;99.90
55369;DHT22;41247;49.736;8.752;2022-08-01T20:54:44;19.00;99.90
55369;DHT22;41247;49.736;8.752;2022-08-01T21:02:57;18.90;99.90
55369;DHT22;41247;49.736;8.752;2022-08-01T21:06:53;18.90;99.90
55369;DHT22;41247;49.736;8.752;2022-08-01T21:10:35;18.80;99.90
55369;DHT22;41247;49.736;8.752;2022-08-01T21:14:20;18.80;99.90
55369;DHT22;41247;49.736;8.752;2022-08-01T21:18:06;18.70;99.90
55369;DHT22;41247;49.736;8.752;2022-08-01T21:21:55;18.70;99.90
55369;DHT22;41247;49.736;8.752;2022-08-01T21:25:42;18.60;99.90
55369;DHT22;41247;49.736;8.752;2022-08-01T21:29:23;18.50;99.90
55369;DHT22;41247;49.736;8.752;2022-08-01T21:33:09;18.40;99.90
55369;DHT22;41247;49.736;8.752;2022-08-01T21:36:51;18.40;99.90
55369;DHT22;41247;49.736;8.752;2022-08-01T21:40:33;18.30;99.90
55369;DHT22;41247;49.736;8.752;2022-08-01T21:44:14;18.20;99.90
55369;DHT22;41247;49.736;8.752;2022-08-01T21:47:57;18.10;99.90
55369;DHT22;41247;49.736;8.752;2022-08-01T21:51:43;18.10;99.90
55369;DHT22;41247;49.736;8.752;2022-08-01T21:59:46;18.00;99.90
55369;DHT22;41247;49.736;8.752;2022-08-01T22:03:52;17.90;99.90
55369;DHT22;41247;49.736;8.752;2022-08-01T22:07:45;17.90;99.90
55369;DHT22;41247;49.736;8.752;2022-08-01T22:11:28;17.80;99.90
55369;DHT22;41247;49.736;8.752;2022-08-01T22:15:11;17.80;99.90
55369;DHT22;41247;49.736;8.752;2022-08-01T22:18:53;17.80;99.90
55369;DHT22;41247;49.736;8.752;2022-08-01T22:22:34;17.80;99.90
55369;DHT22;41247;49.736;8.752;2022-08-01T22:26:15;17.80;99.90
55369;DHT22;41247;49.736;8.752;2022-08-01T22:30:04;17.80;99.90
55369;DHT22;41247;49.736;8.752;2022-08-01T22:33:46;17.80;99.90
55369;DHT22;41247;49.736;8.752;2022-08-01T22:37:27;17.80;99.90
55369;DHT22;41247;49.736;8.752;2022-08-01T22:41:16;17.80;99.90
55369;DHT22;41247;49.736;8.752;2022-08-01T22:45:16;17.90;99.90
55369;DHT22;41247;49.736;8.752;2022-08-01T22:53:34;17.80;99.90
55369;DHT22;41247;49.736;8.752;2022-08-01T22:58:11;17.70;99.90
55369;DHT22;41247;49.736;8.752;2022-08-01T23:01:55;17.60;99.90
55369;DHT22;41247;49.736;8.752;2022-08-01T23:05:48;17.60;99.90
55369;DHT22;41247;49.736;8.752;2022-08-01T23:09:52;17.50;99.90
55369;DHT22;41247;49.736;8.752;2022-08-01T23:13:36;17.50;99.90
55369;DHT22;41247;49.736;8.752;2022-08-01T23:17:18;17.60;99.90
55369;DHT22;41247;49.736;8.752;2022-08-01T23:21:00;17.50;99.90
55369;DHT22;41247;49.736;8.752;2022-08-01T23:24:42;17.50;99.90
55369;DHT22;41247;49.736;8.752;2022-08-01T23:28:25;17.50;99.90
55369;DHT22;41247;49.736;8.752;2022-08-01T23:32:06;17.40;99.90
55369;DHT22;41247;49.736;8.752;2022-08-01T23:35:46;17.30;99.90
55369;DHT22;41247;49.736;8.752;2022-08-01T23:39:27;17.30;99.90
55369;DHT22;41247;49.736;8.752;2022-08-01T23:43:08;17.20;99.90
55369;DHT22;41247;49.736;8.752;2022-08-01T23:46:49;17.20;99.90
55369;DHT22;41247;49.736;8.752;2022-08-01T23:50:29;17.10;99.90
55369;DHT22;41247;49.736;8.752;2022-08-01T23:54:10;17.10;99.90
55369;DHT22;41247;49.736;8.752;2022-08-01T23:57:51;17.20;99.90
